Flight Track Log - Related Links

Times and Time Zones

All times are in EDT time to prevent confusion due to time zone crossing. See the SWA3764 flight status page for this flight to view local times or setup timezone preferences in your user account.

Time Position Orientation Groundspeed Altitude Reporting Facility
EDT Latitude Longitude Course Direction KTS MPH feet Rate Location/Type
Fri 07:38:21 PM 32.7442 -117.2203 303° West 179 206 1,400  Level Los Angeles Center
Fri 07:39:24 PM 32.7869 -117.2978 303° West 235 270 4,000 2,640 Climbing Los Angeles Center
Fri 07:40:26 PM 32.8214 -117.3672 301° West 271 312 6,900 3,145 Climbing Los Angeles Center
Fri 07:41:28 PM 32.8642 -117.4469 303° West 284 327 10,500 3,435 Climbing Los Angeles Center
Fri 07:42:30 PM 32.9342 -117.5183 319° Northwest 293 337 14,000 2,806 Climbing Los Angeles Center
Fri 07:43:32 PM 33.0044 -117.5683 329° Northwest 293 337 16,300 2,177 Climbing Los Angeles Center
Fri 07:44:34 PM 33.0589 -117.6467 310° West 306 352 18,500 1,355 Climbing Los Angeles Center
Fri 07:45:36 PM 33.1161 -117.7347 308° West 330 380 19,100 1,161 Climbing Los Angeles Center
Fri 07:46:38 PM 33.1797 -117.8358 307° West 371 427 20,900 2,129 Climbing Los Angeles Center
Fri 07:47:40 PM 33.2689 -117.9444 314° West 381 438 23,500 1,935 Climbing Los Angeles Center
Fri 07:48:42 PM 33.3492 -118.0283 319° Northwest 383 441 24,900 1,258 Climbing Los Angeles Center
Fri 07:49:44 PM 33.4350 -118.1156 320° Northwest 400 460 26,100 1,306 Climbing Los Angeles Center
Fri 07:50:46 PM 33.5233 -118.2039 320° Northwest 410 472 27,600 1,440 Climbing Los Angeles Center
Fri 07:51:49 PM 33.6253 -118.2681 332° Northwest 414 476 29,100 1,584 Climbing Los Angeles Center
Fri 07:52:51 PM 33.7483 -118.3289 338° Northwest 421 484 30,900 1,500 Climbing Los Angeles Center
Fri 07:53:53 PM 33.8514 -118.3803 338° Northwest 415 478 32,200 1,210 Climbing Los Angeles Center
Fri 07:54:55 PM 33.9558 -118.4322 338° Northwest 410 472 33,400 1,161 Climbing Los Angeles Center
Fri 07:55:57 PM 34.0578 -118.4833 337° Northwest 400 460 34,600 1,065 Climbing Los Angeles Center
Fri 07:56:59 PM 34.1797 -118.5456 337° Northwest 398 458 35,600 672 Climbing Los Angeles Center
Fri 07:58:02 PM 34.2817 -118.5969 337° Northwest 399 459 36,000 192 Climbing Los Angeles Center
Fri 07:59:04 PM 34.3839 -118.6494 337° Northwest 399 459 36,000  Level Los Angeles Center
Fri 08:00:06 PM 34.4867 -118.7000 338° Northwest 399 459 36,000  Level Los Angeles Center
Fri 08:01:08 PM 34.5897 -118.7528 337° Northwest 400 460 36,000  Level Los Angeles Center
Fri 08:02:10 PM 34.6922 -118.8050 337° Northwest 401 461 36,000  Level Los Angeles Center
Fri 08:03:12 PM 34.8133 -118.8711 336° Northwest 398 458 36,000  Level Los Angeles Center
Fri 08:04:14 PM 34.8967 -118.9553 320° Northwest 392 451 36,000  Level Los Angeles Center
Fri 08:05:16 PM 34.9725 -119.0261 323° Northwest 385 443 36,000  Level Los Angeles Center
Fri 08:06:18 PM 35.0722 -119.1253 321° Northwest 388 447 36,000  Level Los Angeles Center
Fri 08:07:20 PM 35.1592 -119.2067 323° Northwest 396 456 36,000  Level Los Angeles Center
Fri 08:08:22 PM 35.2414 -119.2886 321° Northwest 386 444 36,000  Level Los Angeles Center
Fri 08:09:25 PM 35.3244 -119.3703 321° Northwest 386 444 36,000  Level Los Angeles Center
Fri 08:10:27 PM 35.4083 -119.4531 321° Northwest 387 445 36,000  Level Los Angeles Center
Fri 08:11:29 PM 35.5083 -119.5528 321° Northwest 390 449 36,000  Level Los Angeles Center
Fri 08:12:31 PM 35.5925 -119.6361 321° Northwest 390 449 36,000  Level Los Angeles Center
Fri 08:13:33 PM 35.6769 -119.7206 321° Northwest 393 452 36,000  Level Los Angeles Center
Fri 08:14:35 PM 35.7603 -119.8053 320° Northwest 392 451 36,000  Level Los Angeles Center
Fri 08:15:31 PM 35.8436 -119.8875 321° Northwest 393 452 36,000  Level Oakland Center
Fri 08:16:32 PM 35.9272 -119.9728 320° Northwest 394 453 36,000  Level Oakland Center
Fri 08:17:33 PM 36.0108 -120.0583 320° Northwest 393 452 36,000  Level Oakland Center
Fri 08:18:35 PM 36.0950 -120.1442 321° Northwest 394 453 36,000  Level Oakland Center
Fri 08:19:36 PM 36.1794 -120.2283 321° Northwest 392 451 36,000 -49 Level Oakland Center
Fri 08:20:37 PM 36.2789 -120.3303 320° Northwest 389 448 35,900  Descending Oakland Center
Fri 08:21:39 PM 36.3619 -120.4158 320° Northwest 390 449 36,000 -439 Climbing Oakland Center
Fri 08:22:40 PM 36.4456 -120.5017 320° Northwest 391 450 35,000 -1,869 Descending Oakland Center
Fri 08:23:41 PM 36.5294 -120.5881 320° Northwest 394 453 32,200 -2,780 Descending Oakland Center
Fri 08:24:43 PM 36.6139 -120.6742 321° Northwest 394 453 29,300 -2,537 Descending Oakland Center
Fri 08:25:44 PM 36.6994 -120.7628 320° Northwest 399 459 27,000 -2,262 Descending Oakland Center
Fri 08:26:45 PM 36.7792 -120.8508 319° Northwest 388 447 24,700 -2,361 Descending Oakland Center
Fri 08:27:46 PM 36.8672 -120.9517 318° Northwest 371 427 22,200 -2,244 Descending Oakland Center
Fri 08:28:48 PM 36.9381 -121.0333 317° Northwest 351 404 20,100 -2,098 Descending Oakland Center
Fri 08:29:49 PM 37.0125 -121.1183 318° Northwest 359 413 17,900 -2,115 Descending Oakland Center
Fri 08:30:50 PM 37.0864 -121.2044 317° Northwest 361 415 15,800 -2,049 Descending Oakland Center
Fri 08:31:52 PM 37.1578 -121.2850 318° Northwest 348 400 13,700 -2,049 Descending Oakland Center
Fri 08:32:53 PM 37.2264 -121.3661 317° Northwest 340 391 11,600 -1,770 Descending Oakland Center
Fri 08:33:54 PM 37.2925 -121.4428 317° Northwest 327 376 10,100 -1,279 Descending Oakland Center
Fri 08:34:55 PM 37.3539 -121.5139 317° Northwest 287 330 9,000 -1,143 Descending Oakland Center
Fri 08:35:39 PM 37.4000 -121.5667 318° Northwest 279 321 8,100 -1,212 Descending Northern Cal TRACON
Fri 08:36:39 PM 37.4333 -121.6500 297° West 295 339 6,900 -1,050 Descending Northern Cal TRACON
Fri 08:37:39 PM 37.4667 -121.7333 297° West 279 321 6,000 -550 Descending Northern Cal TRACON
Fri 08:38:39 PM 37.5000 -121.8167 297° West 271 312 5,800 -750 Descending Northern Cal TRACON
Fri 08:39:39 PM 37.5500 -121.9000 307° West 268 308 4,500 -950 Descending Northern Cal TRACON
Fri 08:40:39 PM 37.5833 -121.9833 297° West 248 285 3,900 -700 Descending Northern Cal TRACON
Fri 08:41:39 PM 37.6000 -122.0667 284° West 231 266 3,100 -900 Descending Northern Cal TRACON
Fri 08:42:39 PM 37.6333 -122.1167 310° West 188 216 2,100 -905 Descending Northern Cal TRACON
Fri 08:43:45 PM 37.6667 -122.1667 310° West 148 170 1,200 -857 Descending Northern Cal TRACON
Fri 08:44:45 PM 37.7000 -122.2000 322° Northwest 150 173 300 -900 Descending Northern Cal TRACON
Fri 08:47:00 PM 37.7167 -122.2167 270° West  Level FlightAware Approximate
Fri 08:54:00 PM 37.7213 -122.2207 270° West  Level Estimated

Login

Don't have an account? Register now (free) for customized features, flight alerts, and more!